sensor_id;sensor_type;location;lat;lon;timestamp;pressure;altitude;pressure_sealevel;temperature;humidity
20037;BME280;10179;42.640;23.312;2022-09-09T00:01:51;93946.38;;;22.31;51.63
20037;BME280;10179;42.640;23.312;2022-09-09T00:06:59;93942.38;;;22.28;51.39
20037;BME280;10179;42.640;23.312;2022-09-09T00:09:29;93947.03;;;22.23;51.86
20037;BME280;10179;42.640;23.312;2022-09-09T00:12:06;93922.34;;;22.07;51.60
20037;BME280;10179;42.640;23.312;2022-09-09T00:14:48;93946.94;;;22.28;51.68
20037;BME280;10179;42.640;23.312;2022-09-09T00:17:43;93904.84;;;21.96;51.83
20037;BME280;10179;42.640;23.312;2022-09-09T00:20:16;93949.03;;;22.31;51.48
20037;BME280;10179;42.640;23.312;2022-09-09T00:22:53;93940.97;;;22.36;51.38
20037;BME280;10179;42.640;23.312;2022-09-09T00:25:30;93742.16;;;21.08;51.46
20037;BME280;10179;42.640;23.312;2022-09-09T00:27:59;93924.97;;;22.31;51.34
20037;BME280;10179;42.640;23.312;2022-09-09T00:30:29;93921.84;;;22.24;51.33
20037;BME280;10179;42.640;23.312;2022-09-09T00:33:02;93920.06;;;22.19;51.66
20037;BME280;10179;42.640;23.312;2022-09-09T00:35:39;93921.44;;;22.17;52.11
20037;BME280;10179;42.640;23.312;2022-09-09T00:38:13;93915.50;;;22.20;51.82
20037;BME280;10179;42.640;23.312;2022-09-09T00:40:48;93907.75;;;22.18;51.83
20037;BME280;10179;42.640;23.312;2022-09-09T00:43:30;93901.94;;;22.11;51.88
20037;BME280;10179;42.640;23.312;2022-09-09T00:48:49;93906.00;;;22.08;51.85
20037;BME280;10179;42.640;23.312;2022-09-09T00:51:43;93911.25;;;22.19;51.74
20037;BME280;10179;42.640;23.312;2022-09-09T00:59:34;93907.97;;;22.22;51.65
20037;BME280;10179;42.640;23.312;2022-09-09T01:02:26;93905.22;;;22.27;51.49
20037;BME280;10179;42.640;23.312;2022-09-09T01:04:53;93924.00;;;22.22;51.55
20037;BME280;10179;42.640;23.312;2022-09-09T01:07:20;93901.53;;;22.23;51.90
20037;BME280;10179;42.640;23.312;2022-09-09T01:09:57;93911.56;;;22.31;51.77
20037;BME280;10179;42.640;23.312;2022-09-09T01:12:41;93912.00;;;22.38;51.32
20037;BME280;10179;42.640;23.312;2022-09-09T01:15:49;93909.00;;;22.58;50.77
20037;BME280;10179;42.640;23.312;2022-09-09T01:18:08;93897.81;;;22.37;51.30
20037;BME280;10179;42.640;23.312;2022-09-09T01:28:32;93905.44;;;22.30;51.11
20037;BME280;10179;42.640;23.312;2022-09-09T01:31:03;93896.69;;;22.25;51.24
20037;BME280;10179;42.640;23.312;2022-09-09T01:33:29;93903.53;;;22.12;50.89
20037;BME280;10179;42.640;23.312;2022-09-09T01:36:12;93904.78;;;22.20;51.71
20037;BME280;10179;42.640;23.312;2022-09-09T01:38:40;93911.56;;;22.12;51.77
20037;BME280;10179;42.640;23.312;2022-09-09T01:41:05;93919.59;;;22.12;51.80
20037;BME280;10179;42.640;23.312;2022-09-09T01:43:31;93920.41;;;22.12;51.42
20037;BME280;10179;42.640;23.312;2022-09-09T01:45:59;93876.28;;;21.91;51.61
20037;BME280;10179;42.640;23.312;2022-09-09T01:48:26;93920.09;;;22.14;51.27
20037;BME280;10179;42.640;23.312;2022-09-09T01:50:52;93924.41;;;22.15;51.74
20037;BME280;10179;42.640;23.312;2022-09-09T01:53:19;93855.97;;;21.71;51.28
20037;BME280;10179;42.640;23.312;2022-09-09T01:58:34;93930.53;;;22.15;51.32
20037;BME280;10179;42.640;23.312;2022-09-09T02:03:32;93880.78;;;21.77;51.35
20037;BME280;10179;42.640;23.312;2022-09-09T02:06:27;93923.53;;;22.20;50.98
20037;BME280;10179;42.640;23.312;2022-09-09T02:08:55;93918.72;;;22.35;50.33
20037;BME280;10179;42.640;23.312;2022-09-09T02:11:23;93507.75;;;19.44;50.93
20037;BME280;10179;42.640;23.312;2022-09-09T02:13:52;93902.97;;;21.96;51.22
20037;BME280;10179;42.640;23.312;2022-09-09T02:16:38;93911.41;;;22.03;51.15
20037;BME280;10179;42.640;23.312;2022-09-09T02:21:34;93883.72;;;21.75;51.45
20037;BME280;10179;42.640;23.312;2022-09-09T02:24:04;93871.88;;;21.62;51.55
20037;BME280;10179;42.640;23.312;2022-09-09T02:26:31;93896.03;;;21.76;52.08
20037;BME280;10179;42.640;23.312;2022-09-09T02:29:01;93898.31;;;21.83;51.83
20037;BME280;10179;42.640;23.312;2022-09-09T02:31:28;93801.16;;;20.88;51.85
20037;BME280;10179;42.640;23.312;2022-09-09T02:33:59;93893.19;;;21.67;52.11
20037;BME280;10179;42.640;23.312;2022-09-09T02:36:29;93909.63;;;21.80;51.75
20037;BME280;10179;42.640;23.312;2022-09-09T02:38:56;93863.56;;;21.45;52.07
20037;BME280;10179;42.640;23.312;2022-09-09T02:41:30;93887.47;;;21.55;51.99
20037;BME280;10179;42.640;23.312;2022-09-09T02:43:57;93935.31;;;21.76;51.87
20037;BME280;10179;42.640;23.312;2022-09-09T02:49:14;93933.47;;;21.76;52.09
20037;BME280;10179;42.640;23.312;2022-09-09T02:51:53;93815.94;;;21.04;51.84
20037;BME280;10179;42.640;23.312;2022-09-09T02:54:33;93933.22;;;21.73;51.98
20037;BME280;10179;42.640;23.312;2022-09-09T02:59:36;93902.09;;;21.39;52.33
20037;BME280;10179;42.640;23.312;2022-09-09T03:02:02;93923.81;;;21.56;52.05
20037;BME280;10179;42.640;23.312;2022-09-09T03:04:28;93928.63;;;21.54;52.08
20037;BME280;10179;42.640;23.312;2022-09-09T03:06:55;93692.09;;;20.04;52.32
20037;BME280;10179;42.640;23.312;2022-09-09T03:09:21;93924.47;;;21.48;52.10
20037;BME280;10179;42.640;23.312;2022-09-09T03:11:46;93882.50;;;21.19;52.58
20037;BME280;10179;42.640;23.312;2022-09-09T03:14:12;93855.97;;;20.80;52.32
20037;BME280;10179;42.640;23.312;2022-09-09T03:16:37;93924.06;;;21.36;52.54
20037;BME280;10179;42.640;23.312;2022-09-09T03:19:02;93818.16;;;20.73;52.71
20037;BME280;10179;42.640;23.312;2022-09-09T03:21:28;93888.44;;;21.16;52.52
20037;BME280;10179;42.640;23.312;2022-09-09T03:23:54;93925.16;;;21.30;52.35
20037;BME280;10179;42.640;23.312;2022-09-09T03:26:19;93928.31;;;21.37;52.35
20037;BME280;10179;42.640;23.312;2022-09-09T03:28:45;93915.63;;;21.24;52.52
20037;BME280;10179;42.640;23.312;2022-09-09T03:31:11;93935.84;;;21.30;52.47
20037;BME280;10179;42.640;23.312;2022-09-09T03:33:37;93802.16;;;20.44;52.72
20037;BME280;10179;42.640;23.312;2022-09-09T03:36:04;93897.97;;;20.98;52.76
20037;BME280;10179;42.640;23.312;2022-09-09T03:38:29;93899.34;;;20.96;52.83
20037;BME280;10179;42.640;23.312;2022-09-09T03:40:56;93908.94;;;20.97;53.12
20037;BME280;10179;42.640;23.312;2022-09-09T03:43:23;93923.88;;;20.98;53.67
20037;BME280;10179;42.640;23.312;2022-09-09T03:45:49;93920.47;;;20.92;53.76
20037;BME280;10179;42.640;23.312;2022-09-09T03:48:18;93920.25;;;20.89;53.79
20037;BME280;10179;42.640;23.312;2022-09-09T03:50:49;93928.25;;;20.60;54.29
20037;BME280;10179;42.640;23.312;2022-09-09T03:53:16;93926.72;;;20.83;54.42
20037;BME280;10179;42.640;23.312;2022-09-09T03:55:49;93935.47;;;20.88;54.21
20037;BME280;10179;42.640;23.312;2022-09-09T03:58:16;93933.88;;;20.87;54.15
20037;BME280;10179;42.640;23.312;2022-09-09T04:01:02;93920.81;;;20.86;54.33
20037;BME280;10179;42.640;23.312;2022-09-09T04:03:28;93803.81;;;20.06;54.27
20037;BME280;10179;42.640;23.312;2022-09-09T04:05:56;93903.63;;;20.68;54.29
20037;BME280;10179;42.640;23.312;2022-09-09T04:08:22;93850.03;;;20.30;54.56
20037;BME280;10179;42.640;23.312;2022-09-09T04:10:50;93919.25;;;20.80;54.51
20037;BME280;10179;42.640;23.312;2022-09-09T04:13:17;93914.44;;;20.82;54.18
20037;BME280;10179;42.640;23.312;2022-09-09T04:15:44;93851.16;;;20.53;53.86
20037;BME280;10179;42.640;23.312;2022-09-09T04:18:10;93896.22;;;20.89;53.99
20037;BME280;10179;42.640;23.312;2022-09-09T04:20:37;93827.19;;;20.48;53.75
20037;BME280;10179;42.640;23.312;2022-09-09T04:23:03;93836.66;;;20.64;53.55
20037;BME280;10179;42.640;23.312;2022-09-09T04:25:28;93930.97;;;21.37;53.35
20037;BME280;10179;42.640;23.312;2022-09-09T04:27:55;93929.28;;;21.46;53.38
20037;BME280;10179;42.640;23.312;2022-09-09T04:30:21;93862.78;;;20.91;53.30
20037;BME280;10179;42.640;23.312;2022-09-09T04:32:47;93936.53;;;21.64;53.13
20037;BME280;10179;42.640;23.312;2022-09-09T04:35:12;93943.66;;;21.74;52.74
20037;BME280;10179;42.640;23.312;2022-09-09T04:37:38;93893.09;;;21.54;52.31
20037;BME280;10179;42.640;23.312;2022-09-09T04:40:04;93851.34;;;21.39;51.97
20037;BME280;10179;42.640;23.312;2022-09-09T04:42:29;93951.63;;;21.98;52.06
20037;BME280;10179;42.640;23.312;2022-09-09T04:44:55;93953.16;;;22.04;51.51
20037;BME280;10179;42.640;23.312;2022-09-09T04:47:20;93961.66;;;22.06;51.22
20037;BME280;10179;42.640;23.312;2022-09-09T04:49:46;93943.53;;;22.03;51.25
20037;BME280;10179;42.640;23.312;2022-09-09T04:52:12;93932.75;;;22.08;51.50
20037;BME280;10179;42.640;23.312;2022-09-09T04:54:38;93923.59;;;22.14;51.46
20037;BME280;10179;42.640;23.312;2022-09-09T04:57:04;93929.38;;;22.22;51.57
20037;BME280;10179;42.640;23.312;2022-09-09T04:59:30;93923.88;;;22.32;51.50
20037;BME280;10179;42.640;23.312;2022-09-09T05:01:55;93926.31;;;22.47;51.51
20037;BME280;10179;42.640;23.312;2022-09-09T05:04:21;93919.81;;;22.67;51.31
20037;BME280;10179;42.640;23.312;2022-09-09T05:06:47;93905.00;;;22.75;50.67
20037;BME280;10179;42.640;23.312;2022-09-09T05:09:12;93899.69;;;23.02;50.00
20037;BME280;10179;42.640;23.312;2022-09-09T05:11:38;93899.81;;;23.25;49.49
20037;BME280;10179;42.640;23.312;2022-09-09T05:14:03;93894.75;;;23.37;48.59
20037;BME280;10179;42.640;23.312;2022-09-09T05:16:29;93905.97;;;23.67;48.25
20037;BME280;10179;42.640;23.312;2022-09-09T05:18:55;93817.31;;;23.22;47.43
20037;BME280;10179;42.640;23.312;2022-09-09T05:21:22;93919.34;;;24.08;47.13
20037;BME280;10179;42.640;23.312;2022-09-09T05:23:48;93897.72;;;24.13;46.71
20037;BME280;10179;42.640;23.312;2022-09-09T05:26:16;93903.28;;;24.39;46.01
20037;BME280;10179;42.640;23.312;2022-09-09T05:28:42;93906.28;;;24.51;45.68
20037;BME280;10179;42.640;23.312;2022-09-09T05:31:09;93912.78;;;24.59;45.62
20037;BME280;10179;42.640;23.312;2022-09-09T05:33:37;93910.00;;;24.64;45.53
20037;BME280;10179;42.640;23.312;2022-09-09T05:36:07;93909.06;;;24.69;45.32
20037;BME280;10179;42.640;23.312;2022-09-09T05:38:34;93913.09;;;24.80;45.04
20037;BME280;10179;42.640;23.312;2022-09-09T05:41:01;93899.97;;;24.79;44.54
20037;BME280;10179;42.640;23.312;2022-09-09T05:43:28;93806.53;;;24.22;44.34
20037;BME280;10179;42.640;23.312;2022-09-09T05:46:04;93918.31;;;25.08;43.93
20037;BME280;10179;42.640;23.312;2022-09-09T05:48:31;93922.56;;;25.09;43.88
20037;BME280;10179;42.640;23.312;2022-09-09T05:50:57;93935.16;;;25.22;43.58
20037;BME280;10179;42.640;23.312;2022-09-09T05:53:23;93930.75;;;25.26;43.45
20037;BME280;10179;42.640;23.312;2022-09-09T05:55:48;93891.78;;;25.15;43.22
20037;BME280;10179;42.640;23.312;2022-09-09T05:58:14;93922.47;;;25.45;43.08
20037;BME280;10179;42.640;23.312;2022-09-09T06:00:42;93905.03;;;25.42;43.02
20037;BME280;10179;42.640;23.312;2022-09-09T06:03:11;93921.41;;;25.63;42.88
20037;BME280;10179;42.640;23.312;2022-09-09T06:05:37;93854.50;;;25.22;42.57
20037;BME280;10179;42.640;23.312;2022-09-09T06:08:03;93898.59;;;25.52;42.80
20037;BME280;10179;42.640;23.312;2022-09-09T06:10:28;93868.16;;;25.34;42.39
20037;BME280;10179;42.640;23.312;2022-09-09T06:12:53;93924.72;;;25.69;42.21
20037;BME280;10179;42.640;23.312;2022-09-09T06:15:19;93947.78;;;25.92;41.61
20037;BME280;10179;42.640;23.312;2022-09-09T06:17:44;93904.03;;;25.78;41.47
20037;BME280;10179;42.640;23.312;2022-09-09T06:20:10;93953.81;;;26.07;41.39
20037;BME280;10179;42.640;23.312;2022-09-09T06:22:36;93939.44;;;26.46;40.85
20037;BME280;10179;42.640;23.312;2022-09-09T06:25:01;93928.69;;;26.63;40.70
20037;BME280;10179;42.640;23.312;2022-09-09T06:27:27;93821.72;;;26.29;40.30
20037;BME280;10179;42.640;23.312;2022-09-09T06:29:53;93927.03;;;27.15;39.75
20037;BME280;10179;42.640;23.312;2022-09-09T06:32:19;93937.56;;;27.46;39.38
20037;BME280;10179;42.640;23.312;2022-09-09T06:34:44;93938.41;;;27.67;38.65
20037;BME280;10179;42.640;23.312;2022-09-09T06:37:10;93936.63;;;27.80;38.40
20037;BME280;10179;42.640;23.312;2022-09-09T06:39:36;93930.91;;;27.81;38.61
20037;BME280;10179;42.640;23.312;2022-09-09T06:42:01;93926.56;;;27.89;38.24
20037;BME280;10179;42.640;23.312;2022-09-09T06:44:28;93925.41;;;27.99;37.87
20037;BME280;10179;42.640;23.312;2022-09-09T06:46:58;93927.88;;;28.13;37.29
20037;BME280;10179;42.640;23.312;2022-09-09T06:49:24;93921.03;;;28.15;37.42
20037;BME280;10179;42.640;23.312;2022-09-09T06:51:49;93935.03;;;28.38;36.98
20037;BME280;10179;42.640;23.312;2022-09-09T06:54:15;93929.22;;;28.48;36.98
20037;BME280;10179;42.640;23.312;2022-09-09T06:56:41;93809.03;;;27.92;36.09
20037;BME280;10179;42.640;23.312;2022-09-09T06:59:09;93915.72;;;28.82;35.84
20037;BME280;10179;42.640;23.312;2022-09-09T07:01:36;93815.59;;;28.45;35.33
20037;BME280;10179;42.640;23.312;2022-09-09T07:04:03;93947.94;;;29.53;34.94
20037;BME280;10179;42.640;23.312;2022-09-09T07:06:37;93952.28;;;29.79;34.33
20037;BME280;10179;42.640;23.312;2022-09-09T07:09:06;93933.09;;;29.84;33.86
20037;BME280;10179;42.640;23.312;2022-09-09T07:11:40;93938.97;;;29.98;33.72
20037;BME280;10179;42.640;23.312;2022-09-09T07:14:07;93944.28;;;30.19;33.45
20037;BME280;10179;42.640;23.312;2022-09-09T07:16:33;93917.50;;;30.17;33.12
20037;BME280;10179;42.640;23.312;2022-09-09T07:19:03;93923.91;;;30.25;33.13
20037;BME280;10179;42.640;23.312;2022-09-09T07:21:29;93937.09;;;30.51;32.87
20037;BME280;10179;42.640;23.312;2022-09-09T07:23:56;93945.16;;;30.63;32.29
20037;BME280;10179;42.640;23.312;2022-09-09T07:26:24;93932.69;;;30.75;32.55
20037;BME280;10179;42.640;23.312;2022-09-09T07:28:50;93933.34;;;30.96;32.39
20037;BME280;10179;42.640;23.312;2022-09-09T07:31:23;93937.72;;;31.17;31.64
20037;BME280;10179;42.640;23.312;2022-09-09T07:33:49;93930.03;;;31.19;31.98
20037;BME280;10179;42.640;23.312;2022-09-09T07:36:19;93916.00;;;31.17;31.10
20037;BME280;10179;42.640;23.312;2022-09-09T07:38:57;93934.28;;;31.32;31.47
20037;BME280;10179;42.640;23.312;2022-09-09T07:41:28;93906.44;;;31.35;31.49
20037;BME280;10179;42.640;23.312;2022-09-09T07:43:54;93950.09;;;31.74;30.96
20037;BME280;10179;42.640;23.312;2022-09-09T07:46:21;93935.00;;;31.92;30.51
20037;BME280;10179;42.640;23.312;2022-09-09T07:48:51;93855.09;;;31.61;30.23
20037;BME280;10179;42.640;23.312;2022-09-09T07:51:20;93923.34;;;31.92;29.73
20037;BME280;10179;42.640;23.312;2022-09-09T07:53:48;93940.75;;;32.22;29.41
20037;BME280;10179;42.640;23.312;2022-09-09T07:56:16;93917.22;;;31.95;29.95
20037;BME280;10179;42.640;23.312;2022-09-09T07:58:44;93924.19;;;32.12;29.95
20037;BME280;10179;42.640;23.312;2022-09-09T08:03:51;93937.28;;;31.90;29.80
20037;BME280;10179;42.640;23.312;2022-09-09T08:06:17;93936.91;;;31.76;30.51
20037;BME280;10179;42.640;23.312;2022-09-09T08:08:43;93934.91;;;31.57;30.60
20037;BME280;10179;42.640;23.312;2022-09-09T08:11:13;93945.53;;;31.46;30.81
20037;BME280;10179;42.640;23.312;2022-09-09T08:13:43;93939.03;;;31.35;30.96
20037;BME280;10179;42.640;23.312;2022-09-09T08:16:09;93941.97;;;31.30;31.05
20037;BME280;10179;42.640;23.312;2022-09-09T08:18:36;93940.38;;;31.29;31.08
20037;BME280;10179;42.640;23.312;2022-09-09T08:21:12;93910.13;;;30.99;31.39
20037;BME280;10179;42.640;23.312;2022-09-09T08:23:40;93933.72;;;31.10;31.55
20037;BME280;10179;42.640;23.312;2022-09-09T08:28:40;93869.88;;;30.45;31.65
20037;BME280;10179;42.640;23.312;2022-09-09T08:31:14;93927.50;;;30.82;32.04
20037;BME280;10179;42.640;23.312;2022-09-09T08:33:41;93923.25;;;30.69;31.84
20037;BME280;10179;42.640;23.312;2022-09-09T08:36:09;93930.13;;;30.66;31.96
20037;BME280;10179;42.640;23.312;2022-09-09T08:38:36;93936.94;;;30.60;32.01
20037;BME280;10179;42.640;23.312;2022-09-09T08:44:07;93937.03;;;30.63;32.07
20037;BME280;10179;42.640;23.312;2022-09-09T08:55:20;93925.41;;;29.86;32.26
20037;BME280;10179;42.640;23.312;2022-09-09T08:57:49;93933.09;;;29.84;32.72
20037;BME280;10179;42.640;23.312;2022-09-09T09:00:17;93923.94;;;29.76;32.48
20037;BME280;10179;42.640;23.312;2022-09-09T09:02:53;93919.78;;;29.66;33.23
20037;BME280;10179;42.640;23.312;2022-09-09T09:05:37;93911.19;;;29.52;32.95
20037;BME280;10179;42.640;23.312;2022-09-09T09:11:06;93902.59;;;29.50;33.33
20037;BME280;10179;42.640;23.312;2022-09-09T09:13:50;93932.75;;;29.85;33.03
20037;BME280;10179;42.640;23.312;2022-09-09T09:16:29;93932.16;;;30.04;32.78
20037;BME280;10179;42.640;23.312;2022-09-09T09:18:58;93874.97;;;29.81;32.34
20037;BME280;10179;42.640;23.312;2022-09-09T09:21:59;93922.13;;;30.29;31.69
20037;BME280;10179;42.640;23.312;2022-09-09T09:25:14;93923.47;;;30.23;32.20
20037;BME280;10179;42.640;23.312;2022-09-09T09:27:35;93913.97;;;30.17;31.96
20037;BME280;10179;42.640;23.312;2022-09-09T09:30:12;93917.50;;;30.05;32.06
20037;BME280;10179;42.640;23.312;2022-09-09T09:32:41;93910.50;;;29.80;32.03
20037;BME280;10179;42.640;23.312;2022-09-09T09:35:13;93926.41;;;29.93;32.35
20037;BME280;10179;42.640;23.312;2022-09-09T09:37:40;93915.47;;;29.90;32.61
20037;BME280;10179;42.640;23.312;2022-09-09T09:40:17;93918.84;;;29.99;32.74
20037;BME280;10179;42.640;23.312;2022-09-09T09:42:53;93911.19;;;30.01;31.94
20037;BME280;10179;42.640;23.312;2022-09-09T09:48:02;93882.75;;;29.95;31.71
20037;BME280;10179;42.640;23.312;2022-09-09T09:50:28;93858.63;;;29.78;31.79
20037;BME280;10179;42.640;23.312;2022-09-09T09:53:17;93867.38;;;29.87;31.67
20037;BME280;10179;42.640;23.312;2022-09-09T09:55:53;93807.59;;;29.55;31.56
20037;BME280;10179;42.640;23.312;2022-09-09T09:58:19;93894.44;;;30.11;31.59
20037;BME280;10179;42.640;23.312;2022-09-09T10:00:51;93897.84;;;30.21;31.58
20037;BME280;10179;42.640;23.312;2022-09-09T10:03:49;93891.28;;;30.22;31.60
20037;BME280;10179;42.640;23.312;2022-09-09T10:06:15;93896.47;;;30.14;31.71
20037;BME280;10179;42.640;23.312;2022-09-09T10:08:45;93881.38;;;30.01;31.71
20037;BME280;10179;42.640;23.312;2022-09-09T10:11:33;93910.00;;;30.14;31.44
20037;BME280;10179;42.640;23.312;2022-09-09T10:14:17;93908.47;;;30.01;32.41
20037;BME280;10179;42.640;23.312;2022-09-09T10:17:13;93905.88;;;30.05;32.16
20037;BME280;10179;42.640;23.312;2022-09-09T10:22:39;93908.94;;;29.91;32.18
20037;BME280;10179;42.640;23.312;2022-09-09T10:39:01;93911.72;;;29.45;33.00
20037;BME280;10179;42.640;23.312;2022-09-09T10:41:53;93914.09;;;29.47;33.20
20037;BME280;10179;42.640;23.312;2022-09-09T10:44:55;93917.94;;;29.46;33.29
20037;BME280;10179;42.640;23.312;2022-09-09T10:55:57;93922.09;;;29.31;33.47
20037;BME280;10179;42.640;23.312;2022-09-09T10:58:32;93913.84;;;29.28;33.73
20037;BME280;10179;42.640;23.312;2022-09-09T11:01:07;93914.06;;;29.22;33.78
20037;BME280;10179;42.640;23.312;2022-09-09T11:03:35;93861.63;;;28.82;33.73
20037;BME280;10179;42.640;23.312;2022-09-09T11:06:06;93912.91;;;29.11;34.27
20037;BME280;10179;42.640;23.312;2022-09-09T11:08:38;93919.78;;;29.09;34.19
20037;BME280;10179;42.640;23.312;2022-09-09T11:16:50;93913.81;;;29.15;34.63
20037;BME280;10179;42.640;23.312;2022-09-09T11:19:36;93911.78;;;29.12;34.92
20037;BME280;10179;42.640;23.312;2022-09-09T11:22:32;93904.56;;;29.16;34.48
20037;BME280;10179;42.640;23.312;2022-09-09T11:27:33;93890.75;;;29.42;34.26
20037;BME280;10179;42.640;23.312;2022-09-09T11:30:13;93858.56;;;29.04;34.68
20037;BME280;10179;42.640;23.312;2022-09-09T11:40:32;93867.59;;;29.08;34.56
20037;BME280;10179;42.640;23.312;2022-09-09T11:43:13;93846.84;;;29.00;34.81
20037;BME280;10179;42.640;23.312;2022-09-09T11:45:41;93839.03;;;28.98;34.59
20037;BME280;10179;42.640;23.312;2022-09-09T11:48:43;93843.94;;;29.30;34.96
20037;BME280;10179;42.640;23.312;2022-09-09T11:51:26;93783.38;;;29.10;35.09
20037;BME280;10179;42.640;23.312;2022-09-09T11:54:25;93794.88;;;29.19;34.92
20037;BME280;10179;42.640;23.312;2022-09-09T11:56:45;93825.56;;;29.35;34.76
20037;BME280;10179;42.640;23.312;2022-09-09T11:59:21;93826.09;;;29.41;35.00
20037;BME280;10179;42.640;23.312;2022-09-09T12:02:22;93819.25;;;29.31;35.07
20037;BME280;10179;42.640;23.312;2022-09-09T12:04:55;93837.97;;;29.36;35.72
20037;BME280;10179;42.640;23.312;2022-09-09T12:07:31;93762.50;;;28.86;35.85
20037;BME280;10179;42.640;23.312;2022-09-09T12:12:32;93823.41;;;29.41;35.59
20037;BME280;10179;42.640;23.312;2022-09-09T12:17:44;93818.88;;;29.57;35.37
20037;BME280;10179;42.640;23.312;2022-09-09T12:20:22;93800.84;;;29.61;35.11
20037;BME280;10179;42.640;23.312;2022-09-09T12:28:18;93720.56;;;29.41;35.00
20037;BME280;10179;42.640;23.312;2022-09-09T12:33:37;93785.22;;;29.95;35.01
20037;BME280;10179;42.640;23.312;2022-09-09T12:36:03;93732.03;;;29.62;35.04
20037;BME280;10179;42.640;23.312;2022-09-09T12:38:36;93772.34;;;29.92;35.16
20037;BME280;10179;42.640;23.312;2022-09-09T12:41:02;93766.84;;;29.88;34.86
20037;BME280;10179;42.640;23.312;2022-09-09T12:43:28;93732.94;;;29.66;34.99
20037;BME280;10179;42.640;23.312;2022-09-09T12:46:07;93772.16;;;29.85;35.07
20037;BME280;10179;42.640;23.312;2022-09-09T12:48:39;93797.16;;;29.94;35.13
20037;BME280;10179;42.640;23.312;2022-09-09T12:51:34;93773.97;;;29.81;35.11
20037;BME280;10179;42.640;23.312;2022-09-09T12:54:00;93779.69;;;29.91;34.85
20037;BME280;10179;42.640;23.312;2022-09-09T12:56:28;93777.41;;;29.93;35.15
20037;BME280;10179;42.640;23.312;2022-09-09T12:58:56;93759.03;;;29.87;34.75
20037;BME280;10179;42.640;23.312;2022-09-09T13:01:32;93753.81;;;29.94;34.97
20037;BME280;10179;42.640;23.312;2022-09-09T13:04:01;93680.63;;;29.50;35.07
20037;BME280;10179;42.640;23.312;2022-09-09T13:06:29;93745.69;;;29.94;34.95
20037;BME280;10179;42.640;23.312;2022-09-09T13:08:57;93717.88;;;29.81;34.53
20037;BME280;10179;42.640;23.312;2022-09-09T13:11:51;93760.28;;;30.30;34.47
20037;BME280;10179;42.640;23.312;2022-09-09T13:14:19;93649.59;;;29.47;34.44
20037;BME280;10179;42.640;23.312;2022-09-09T13:16:57;93745.16;;;30.16;34.60
20037;BME280;10179;42.640;23.312;2022-09-09T13:19:23;93765.69;;;30.30;34.56
20037;BME280;10179;42.640;23.312;2022-09-09T13:21:53;93757.31;;;30.35;34.54
20037;BME280;10179;42.640;23.312;2022-09-09T13:26:56;93736.66;;;30.30;35.01
20037;BME280;10179;42.640;23.312;2022-09-09T13:29:22;93563.47;;;29.09;35.02
20037;BME280;10179;42.640;23.312;2022-09-09T13:31:48;93689.81;;;30.02;35.23
20037;BME280;10179;42.640;23.312;2022-09-09T13:34:28;93742.19;;;30.34;35.28
20037;BME280;10179;42.640;23.312;2022-09-09T13:37:05;93745.78;;;30.38;35.17
20037;BME280;10179;42.640;23.312;2022-09-09T13:39:33;93734.03;;;30.34;34.99
20037;BME280;10179;42.640;23.312;2022-09-09T13:42:00;93723.91;;;30.31;34.78
20037;BME280;10179;42.640;23.312;2022-09-09T13:44:35;93702.59;;;30.17;34.94
20037;BME280;10179;42.640;23.312;2022-09-09T13:49:39;93720.81;;;30.32;35.19
20037;BME280;10179;42.640;23.312;2022-09-09T13:52:16;93701.16;;;30.19;35.25
20037;BME280;10179;42.640;23.312;2022-09-09T13:54:50;93705.16;;;30.26;34.88
20037;BME280;10179;42.640;23.312;2022-09-09T13:59:44;93617.63;;;29.65;34.67
20037;BME280;10179;42.640;23.312;2022-09-09T14:02:10;93716.22;;;30.33;34.93
20037;BME280;10179;42.640;23.312;2022-09-09T14:04:35;93719.16;;;30.28;35.01
20037;BME280;10179;42.640;23.312;2022-09-09T14:07:02;93710.91;;;30.08;35.67
20037;BME280;10179;42.640;23.312;2022-09-09T14:09:28;93730.97;;;30.19;35.66
20037;BME280;10179;42.640;23.312;2022-09-09T14:11:53;93755.22;;;30.16;35.41
20037;BME280;10179;42.640;23.312;2022-09-09T14:14:20;93689.25;;;29.96;35.65
20037;BME280;10179;42.640;23.312;2022-09-09T14:16:46;93691.09;;;29.92;35.59
20037;BME280;10179;42.640;23.312;2022-09-09T14:19:12;93715.59;;;30.11;35.67
20037;BME280;10179;42.640;23.312;2022-09-09T14:21:37;93718.75;;;30.13;35.70
20037;BME280;10179;42.640;23.312;2022-09-09T14:24:03;93715.59;;;30.11;36.01
20037;BME280;10179;42.640;23.312;2022-09-09T14:26:28;93718.13;;;30.04;35.93
20037;BME280;10179;42.640;23.312;2022-09-09T14:28:55;93715.31;;;30.01;35.74
20037;BME280;10179;42.640;23.312;2022-09-09T14:31:20;93719.94;;;30.00;35.74
20037;BME280;10179;42.640;23.312;2022-09-09T14:33:46;93714.53;;;30.00;35.88
20037;BME280;10179;42.640;23.312;2022-09-09T14:36:12;93716.91;;;30.02;35.63
20037;BME280;10179;42.640;23.312;2022-09-09T14:38:38;93701.66;;;29.97;35.54
20037;BME280;10179;42.640;23.312;2022-09-09T14:41:05;93694.94;;;29.91;35.25
20037;BME280;10179;42.640;23.312;2022-09-09T14:43:31;93702.44;;;29.98;35.59
20037;BME280;10179;42.640;23.312;2022-09-09T14:46:04;93705.78;;;29.91;35.41
20037;BME280;10179;42.640;23.312;2022-09-09T14:48:31;93632.47;;;29.43;35.84
20037;BME280;10179;42.640;23.312;2022-09-09T14:50:56;93693.59;;;29.85;35.85
20037;BME280;10179;42.640;23.312;2022-09-09T14:53:21;93700.16;;;29.84;35.58
20037;BME280;10179;42.640;23.312;2022-09-09T14:55:47;93704.78;;;29.83;35.59
20037;BME280;10179;42.640;23.312;2022-09-09T14:58:13;93693.66;;;29.72;35.49
20037;BME280;10179;42.640;23.312;2022-09-09T15:00:38;93687.34;;;29.68;35.58
20037;BME280;10179;42.640;23.312;2022-09-09T15:03:04;93657.38;;;29.49;35.62
20037;BME280;10179;42.640;23.312;2022-09-09T15:05:29;93717.31;;;29.88;35.43